Observation data for Floydada on 12/09/2018      Previous  Date  Next       Current Mesonet Observations  Soil Data  Daily Summary Page  Observations in Plain Language
KFLS 090600Z 28002KT M08/M10 A3029 RMK A01 T10811096  RH  090%=      5-min Rain = 0
KFLS 090605Z 28002KT M08/M10 A3029 RMK A01 T10821097  RH  090%=      5-min Rain = 0
KFLS 090610Z 28002KT M08/M10 A3029 RMK A01 T10811095  RH  090%=      5-min Rain = 0
KFLS 090615Z 28002KT M08/M09 A3029 RMK A01 T10801094  RH  091%=      5-min Rain = 0
KFLS 090620Z 28002KT M08/M09 A3029 RMK A01 T10801094  RH  091%=      5-min Rain = 0
KFLS 090625Z 29002KT M08/M09 A3029 RMK A01 T10801094  RH  091%=      5-min Rain = 0
KFLS 090630Z 29002KT M08/M09 A3029 RMK A01 T10801094  RH  091%=      5-min Rain = 0
KFLS 090635Z 30001KT M08/M10 A3029 RMK A01 T10821096  RH  090%=      5-min Rain = 0
KFLS 090640Z 30001KT M08/M10 A3029 RMK A01 T10841099  RH  090%=      5-min Rain = 0
KFLS 090645Z 30001KT M08/M10 A3029 RMK A01 T10841099  RH  090%=      5-min Rain = 0
KFLS 090650Z 30001KT M08/M10 A3029 RMK A01 T10841100  RH  090%=      5-min Rain = 0
KFLS 090655Z 29002KT M08/M10 A3029 RMK A01 T10841099  RH  090%=      5-min Rain = 0
KFLS 090700Z 30001KT M08/M10 A3029 RMK A01 T10841099  RH  090%=      5-min Rain = 0
KFLS 090705Z 29001KT M09/M10 A3029 RMK A01 T10861101  RH  090%=      5-min Rain = 0
KFLS 090710Z 29001KT M09/M10 A3029 RMK A01 T10851101  RH  090%=      5-min Rain = 0
KFLS 090715Z 30001KT M08/M10 A3029 RMK A01 T10841099  RH  090%=      5-min Rain = 0
KFLS 090720Z 30001KT M08/M10 A3029 RMK A01 T10841099  RH  090%=      5-min Rain = 0
KFLS 090725Z 30002KT M08/M10 A3029 RMK A01 T10841099  RH  090%=      5-min Rain = 0
KFLS 090730Z 30002KT M08/M10 A3029 RMK A01 T10831098  RH  090%=      5-min Rain = 0
KFLS 090735Z 30002KT M08/M10 A3028 RMK A01 T10831098  RH  090%=      5-min Rain = 0
KFLS 090740Z 30002KT M08/M10 A3028 RMK A01 T10821097  RH  090%=      5-min Rain = 0
KFLS 090745Z 30002KT M08/M10 A3028 RMK A01 T10831098  RH  090%=      5-min Rain = 0
KFLS 090750Z 30002KT M08/M10 A3028 RMK A01 T10831098  RH  090%=      5-min Rain = 0
KFLS 090755Z 30002KT M08/M10 A3028 RMK A01 T10821096  RH  090%=      5-min Rain = 0
KFLS 090800Z 31002KT M08/M10 A3028 RMK A01 T10821096  RH  090%=      5-min Rain = 0
KFLS 090805Z 30002KT M08/M10 A3028 RMK A01 T10831097  RH  090%=      5-min Rain = 0
KFLS 090810Z 30002KT M08/M10 A3028 RMK A01 T10831098  RH  090%=      5-min Rain = 0
KFLS 090815Z 30002KT M08/M10 A3028 RMK A01 T10831098  RH  090%=      5-min Rain = 0
KFLS 090820Z 30002KT M08/M10 A3028 RMK A01 T10831098  RH  090%=      5-min Rain = 0
KFLS 090825Z 30002KT M08/M10 A3028 RMK A01 T10821097  RH  090%=      5-min Rain = 0
KFLS 090830Z 31002KT M08/M09 A3028 RMK A01 T10801094  RH  091%=      5-min Rain = 0
KFLS 090835Z 31002KT M08/M09 A3028 RMK A01 T10781092  RH  091%=      5-min Rain = 0
KFLS 090840Z 32002KT M08/M09 A3028 RMK A01 T10771091  RH  091%=      5-min Rain = 0
KFLS 090845Z 32002KT M08/M09 A3028 RMK A01 T10791093  RH  091%=      5-min Rain = 0
KFLS 090850Z 32002KT M08/M10 A3028 RMK A01 T10811096  RH  090%=      5-min Rain = 0
KFLS 090855Z 32002KT M08/M10 A3028 RMK A01 T10801095  RH  090%=      5-min Rain = 0
KFLS 090900Z 32002KT M08/M10 A3028 RMK A01 T10801095  RH  090%=      5-min Rain = 0
KFLS 090905Z 31001KT M08/M10 A3028 RMK A01 T10801095  RH  090%=      5-min Rain = 0
KFLS 090910Z 29001KT M08/M10 A3028 RMK A01 T10841099  RH  090%=      5-min Rain = 0
KFLS 090915Z 30002KT M09/M10 A3028 RMK A01 T10881104  RH  090%=      5-min Rain = 0
KFLS 090920Z 30001KT M09/M10 A3028 RMK A01 T10881104  RH  090%=      5-min Rain = 0
KFLS 090925Z 30001KT M09/M11 A3028 RMK A01 T10901106  RH  089%=      5-min Rain = 0
KFLS 090930Z 30001KT M09/M11 A3028 RMK A01 T10931109  RH  089%=      5-min Rain = 0
KFLS 090935Z 30001KT M09/M11 A3028 RMK A01 T10941111  RH  089%=      5-min Rain = 0
KFLS 090940Z 30001KT M09/M11 A3028 RMK A01 T10941111  RH  089%=      5-min Rain = 0
KFLS 090945Z 31001KT M09/M11 A3028 RMK A01 T10931110  RH  089%=      5-min Rain = 0
KFLS 090950Z 31001KT M09/M11 A3028 RMK A01 T10941110  RH  089%=      5-min Rain = 0
KFLS 090955Z 30001KT M10/M11 A3028 RMK A01 T10951111  RH  089%=      5-min Rain = 0
KFLS 091000Z 29001KT M10/M11 A3028 RMK A01 T10951112  RH  089%=      5-min Rain = 0
KFLS 091005Z 29001KT M09/M11 A3028 RMK A01 T10941110  RH  089%=      5-min Rain = 0
KFLS 091010Z 30001KT M09/M11 A3028 RMK A01 T10931110  RH  089%=      5-min Rain = 0
KFLS 091015Z 30001KT M09/M11 A3028 RMK A01 T10941111  RH  089%=      5-min Rain = 0
KFLS 091020Z 31001KT M10/M11 A3028 RMK A01 T10961113  RH  089%=      5-min Rain = 0
KFLS 091025Z 30001KT M10/M11 A3028 RMK A01 T10951112  RH  089%=      5-min Rain = 0
KFLS 091030Z 32001KT M09/M11 A3028 RMK A01 T10941110  RH  089%=      5-min Rain = 0
KFLS 091035Z 31001KT M09/M11 A3028 RMK A01 T10941110  RH  089%=      5-min Rain = 0
KFLS 091040Z 31001KT M10/M11 A3028 RMK A01 T10961113  RH  089%=      5-min Rain = 0
KFLS 091045Z 31001KT M10/M11 A3028 RMK A01 T10951112  RH  089%=      5-min Rain = 0
KFLS 091050Z 31001KT M09/M11 A3028 RMK A01 T10941111  RH  089%=      5-min Rain = 0
KFLS 091055Z 31001KT M10/M11 A3028 RMK A01 T10951111  RH  089%=      5-min Rain = 0
KFLS 091100Z 31001KT M10/M11 A3028 RMK A01 T10951112  RH  089%=      5-min Rain = 0
KFLS 091105Z 31001KT M10/M11 A3028 RMK A01 T10951112  RH  089%=      5-min Rain = 0
KFLS 091110Z 32001KT M09/M11 A3028 RMK A01 T10941111  RH  089%=      5-min Rain = 0
KFLS 091115Z 32001KT M09/M11 A3028 RMK A01 T10921109  RH  089%=      5-min Rain = 0
KFLS 091120Z 32001KT M09/M11 A3028 RMK A01 T10931109  RH  089%=      5-min Rain = 0
KFLS 091125Z 32001KT M09/M11 A3028 RMK A01 T10911107  RH  089%=      5-min Rain = 0
KFLS 091130Z 33001KT M09/M11 A3028 RMK A01 T10901106  RH  089%=      5-min Rain = 0
KFLS 091135Z 33001KT M09/M11 A3028 RMK A01 T10901106  RH  089%=      5-min Rain = 0
KFLS 091140Z 33001KT M09/M11 A3029 RMK A01 T10921108  RH  089%=      5-min Rain = 0
KFLS 091145Z 34001KT M09/M11 A3029 RMK A01 T10941111  RH  089%=      5-min Rain = 0
KFLS 091150Z 34001KT M10/M11 A3029 RMK A01 T10951112  RH  089%=      5-min Rain = 0
KFLS 091155Z 33000KT M10/M11 A3029 RMK A01 T10961113  RH  089%=      5-min Rain = 0
KFLS 091200Z 00000KT M10/M11 A3029 RMK A01 T10971114  RH  089%=      5-min Rain = 0
KFLS 091205Z 00000KT M10/M11 A3029 RMK A01 T10971114  RH  089%=      5-min Rain = 0
KFLS 091210Z 00000KT M10/M12 A3029 RMK A01 T10971115  RH  089%=      5-min Rain = 0
KFLS 091215Z 00000KT M10/M12 A3029 RMK A01 T10981116  RH  088%=      5-min Rain = 0
KFLS 091220Z 00000KT M10/M12 A3029 RMK A01 T11001117  RH  088%=      5-min Rain = 0
KFLS 091225Z 00000KT M10/M12 A303 RMK A01 T11011119  RH  088%=      5-min Rain = 0
KFLS 091230Z 00000KT M10/M12 A303 RMK A01 T11021120  RH  088%=      5-min Rain = 0
KFLS 091235Z 00000KT M10/M12 A303 RMK A01 T11021120  RH  088%=      5-min Rain = 0
KFLS 091240Z 00000KT M10/M12 A303 RMK A01 T11001117  RH  088%=      5-min Rain = 0
KFLS 091245Z 00000KT M10/M12 A3031 RMK A01 T10981115  RH  089%=      5-min Rain = 0
KFLS 091250Z 00000KT M09/M11 A3031 RMK A01 T10911107  RH  089%=      5-min Rain = 0
KFLS 091255Z 00000KT M09/M11 A3031 RMK A01 T10911107  RH  089%=      5-min Rain = 0
KFLS 091300Z 00000KT M10/M11 A3031 RMK A01 T10961113  RH  089%=      5-min Rain = 0
KFLS 091305Z 00000KT M10/M12 A3031 RMK A01 T11001118  RH  088%=      5-min Rain = 0
KFLS 091310Z 00000KT M10/M12 A3031 RMK A01 T11001117  RH  088%=      5-min Rain = 0
KFLS 091315Z 00000KT M10/M12 A3031 RMK A01 T10991117  RH  088%=      5-min Rain = 0
KFLS 091320Z 00000KT M10/M12 A3032 RMK A01 T11001117  RH  088%=      5-min Rain = 0
KFLS 091325Z 00000KT M10/M12 A3032 RMK A01 T10991117  RH  088%=      5-min Rain = 0
KFLS 091330Z 00000KT M10/M12 A3032 RMK A01 T11001117  RH  088%=      5-min Rain = 0
KFLS 091335Z 00000KT M10/M12 A3032 RMK A01 T11021120  RH  088%=      5-min Rain = 0
KFLS 091340Z 00000KT M10/M12 A3033 RMK A01 T11011119  RH  088%=      5-min Rain = 0
KFLS 091345Z 00000KT M10/M12 A3033 RMK A01 T11001117  RH  088%=      5-min Rain = 0
KFLS 091350Z 00000KT M10/M12 A3033 RMK A01 T10981116  RH  088%=      5-min Rain = 0
KFLS 091355Z 00000KT M10/M11 A3033 RMK A01 T10961113  RH  089%=      5-min Rain = 0
KFLS 091400Z 00000KT M10/M11 A3033 RMK A01 T10971114  RH  088%=      5-min Rain = 0
KFLS 091405Z 00000KT M10/M11 A3033 RMK A01 T10961114  RH  088%=      5-min Rain = 0
KFLS 091410Z 00000KT M10/M11 A3034 RMK A01 T10961113  RH  088%=      5-min Rain = 0
KFLS 091415Z 00000KT M10/M11 A3034 RMK A01 T10971114  RH  088%=      5-min Rain = 0
KFLS 091420Z 00000KT M10/M12 A3034 RMK A01 T10991117  RH  088%=      5-min Rain = 0
KFLS 091425Z 00000KT M10/M11 A3034 RMK A01 T10961114  RH  088%=      5-min Rain = 0
KFLS 091430Z 00000KT M09/M11 A3034 RMK A01 T10921108  RH  089%=      5-min Rain = 0
KFLS 091435Z 00000KT M09/M11 A3034 RMK A01 T10911108  RH  089%=      5-min Rain = 0
KFLS 091440Z 00000KT M09/M11 A3034 RMK A01 T10911108  RH  089%=      5-min Rain = 0
KFLS 091445Z 00000KT M09/M10 A3034 RMK A01 T10871104  RH  089%=      5-min Rain = 0
KFLS 091450Z 00000KT M08/M10 A3035 RMK A01 T10811097  RH  090%=      5-min Rain = 0
KFLS 091455Z 00000KT M08/M10 A3035 RMK A01 T10811097  RH  090%=      5-min Rain = 0
KFLS 091500Z 00000KT M08/M10 A3035 RMK A01 T10811097  RH  090%=      5-min Rain = 0
KFLS 091505Z 00000KT M08/M09 A3036 RMK A01 T10781093  RH  090%=      5-min Rain = 0
KFLS 091510Z 00000KT M07/M09 A3036 RMK A01 T10741088  RH  090%=      5-min Rain = 0
KFLS 091515Z 00000KT M07/M08 A3036 RMK A01 T10701084  RH  091%=      5-min Rain = 0
KFLS 091520Z 00000KT M07/M08 A3036 RMK A01 T10671080  RH  091%=      5-min Rain = 0
KFLS 091525Z 00000KT M06/M07 A3037 RMK A01 T10621074  RH  092%=      5-min Rain = 0
KFLS 091530Z 00000KT M06/M07 A3037 RMK A01 T10571069  RH  092%=      5-min Rain = 0
KFLS 091535Z 00000KT M06/M07 A3037 RMK A01 T10581070  RH  092%=      5-min Rain = 0
KFLS 091540Z 00000KT M06/M07 A3037 RMK A01 T10561068  RH  092%=      5-min Rain = 0
KFLS 091545Z 00000KT M05/M06 A3037 RMK A01 T10521063  RH  093%=      5-min Rain = 0
KFLS 091550Z 00000KT M05/M06 A3037 RMK A01 T10471058  RH  093%=      5-min Rain = 0
KFLS 091555Z 00000KT M04/M05 A3038 RMK A01 T10441054  RH  094%=      5-min Rain = 0
KFLS 091600Z 00000KT M04/M05 A3038 RMK A01 T10431053  RH  094%=      5-min Rain = 0
KFLS 091605Z 00000KT M04/M05 A3037 RMK A01 T10391049  RH  094%=      5-min Rain = 0
KFLS 091610Z 00000KT M04/M05 A3037 RMK A01 T10361046  RH  094%=      5-min Rain = 0
KFLS 091615Z 00000KT M04/M04 A3037 RMK A01 T10351044  RH  094%=      5-min Rain = 0
KFLS 091620Z 00000KT M03/M04 A3037 RMK A01 T10301039  RH  095%=      5-min Rain = 0
KFLS 091625Z 00000KT M03/M04 A3038 RMK A01 T10291037  RH  095%=      5-min Rain = 0
KFLS 091630Z 00000KT M03/M03 A3037 RMK A01 T10261034  RH  095%=      5-min Rain = 0
KFLS 091635Z 00000KT M03/M03 A3037 RMK A01 T10261034  RH  095%=      5-min Rain = 0
KFLS 091640Z 29000KT M02/M03 A3038 RMK A01 T10241031  RH  095%=      5-min Rain = 0
KFLS 091645Z 29000KT M02/M03 A3038 RMK A01 T10211028  RH  096%=      5-min Rain = 0
KFLS 091650Z 00000KT M02/M03 A3038 RMK A01 T10201027  RH  096%=      5-min Rain = 0
KFLS 091655Z 29000KT M02/M03 A3038 RMK A01 T10181025  RH  096%=      5-min Rain = 0
KFLS 091700Z 00000KT M02/M02 A3038 RMK A01 T10171024  RH  096%=      5-min Rain = 0
KFLS 091705Z 29003KT M02/M02 A3038 RMK A01 T10161023  RH  096%=      5-min Rain = 0.01
KFLS 091710Z 30002KT M01/M02 A3038 RMK A01 T10121019  RH  097%=      5-min Rain = 0
KFLS 091715Z 29002KT M01/M02 A3038 RMK A01 T10111017  RH  097%=      5-min Rain = 0
KFLS 091720Z 28002KT M01/M02 A3037 RMK A01 T10091015  RH  097%=      5-min Rain = 0.01
KFLS 091725Z 28002KT M01/M01 A3037 RMK A01 T10071013  RH  097%=      5-min Rain = 0
KFLS 091730Z 28003KT M01/M01 A3038 RMK A01 T10071013  RH  097%=      5-min Rain = 0.01
KFLS 091735Z 27003KT M00/M01 A3037 RMK A01 T10041010  RH  097%=      5-min Rain = 0
KFLS 091740Z 27003KT M00/M01 A3037 RMK A01 T10031008  RH  097%=      5-min Rain = 0.01
KFLS 091745Z 28003KT M00/M01 A3037 RMK A01 T10031008  RH  097%=      5-min Rain = 0
KFLS 091750Z 29003KT M00/M01 A3037 RMK A01 T10021008  RH  097%=      5-min Rain = 0
KFLS 091755Z 30003KT M00/M01 A3037 RMK A01 T10021007  RH  097%=      5-min Rain = 0.01
KFLS 091800Z 30002KT M00/M01 A3037 RMK A01 T10011006  RH  097%=      5-min Rain = 0
KFLS 091805Z 30003KT 00/01 A3037 RMK A01 T00-000-6  RH  097%=      5-min Rain = 0
KFLS 091810Z 31003KT 00/01 A3036 RMK A01 T000000-5  RH  097%=      5-min Rain = 0
KFLS 091815Z 31004KT 00/M01 A3036 RMK A01 T00011005  RH  097%=      5-min Rain = 0
KFLS 091820Z 30003KT 00/M00 A3036 RMK A01 T00011004  RH  097%=      5-min Rain = 0.01
KFLS 091825Z 30003KT 00/M00 A3036 RMK A01 T00021003  RH  097%=      5-min Rain = 0
KFLS 091830Z 30003KT 00/M01 A3035 RMK A01 T00011005  RH  097%=      5-min Rain = 0.01
KFLS 091835Z 30004KT 00/M01 A3035 RMK A01 T00011006  RH  097%=      5-min Rain = 0.01
KFLS 091840Z 30004KT 00/M01 A3035 RMK A01 T00021006  RH  096%=      5-min Rain = 0.01
KFLS 091845Z 31004KT 00/M01 A3035 RMK A01 T00041005  RH  095%=      5-min Rain = 0
KFLS 091850Z 30003KT 01/M01 A3034 RMK A01 T00051005  RH  094%=      5-min Rain = 0.01
KFLS 091855Z 30003KT 01/M01 A3034 RMK A01 T00051006  RH  093%=      5-min Rain = 0.01
KFLS 091900Z 31003KT 01/M00 A3034 RMK A01 T00071004  RH  093%=      5-min Rain = 0
KFLS 091905Z 30004KT 01/M01 A3034 RMK A01 T00071005  RH  093%=      5-min Rain = 0.01
KFLS 091910Z 30004KT 01/M01 A3034 RMK A01 T00071007  RH  091%=      5-min Rain = 0.01
KFLS 091915Z 30004KT 01/M01 A3034 RMK A01 T00081009  RH  089%=      5-min Rain = 0.01
KFLS 091920Z 30004KT 01/M01 A3034 RMK A01 T00101009  RH  088%=      5-min Rain = 0
KFLS 091925Z 30005KT 01/M01 A3033 RMK A01 T00111008  RH  088%=      5-min Rain = 0.01
KFLS 091930Z 29005KT 01/M01 A3034 RMK A01 T00131007  RH  088%=      5-min Rain = 0.01
KFLS 091935Z 29004KT 02/M01 A3033 RMK A01 T00151008  RH  085%=      5-min Rain = 0
KFLS 091940Z 30004KT 02/M01 A3033 RMK A01 T00171012  RH  082%=      5-min Rain = 0.01
KFLS 091945Z 30005KT 02/M02 A3033 RMK A01 T00201016  RH  078%=      5-min Rain = 0.01
KFLS 091950Z 30004KT 02/M02 A3033 RMK A01 T00221015  RH  078%=      5-min Rain = 0
KFLS 091955Z 30004KT 02/M02 A3033 RMK A01 T00221017  RH  076%=      5-min Rain = 0.01
KFLS 092000Z 30005KT 02/M02 A3033 RMK A01 T00221020  RH  075%=      5-min Rain = 0.01
KFLS 092005Z 30005KT 02/M02 A3033 RMK A01 T00221020  RH  074%=      5-min Rain = 0
KFLS 092010Z 30005KT 02/M02 A3033 RMK A01 T00231020  RH  074%=      5-min Rain = 0.01
KFLS 092015Z 30004KT 03/M02 A3033 RMK A01 T00251017  RH  075%=      5-min Rain = 0
KFLS 092020Z 30006KT 02/M02 A3033 RMK A01 T00241019  RH  074%=      5-min Rain = 0.01
KFLS 092025Z 30005KT 03/M02 A3033 RMK A01 T00251018  RH  074%=      5-min Rain = 0.01
KFLS 092030Z 30005KT 03/M02 A3033 RMK A01 T00261017  RH  075%=      5-min Rain = 0
KFLS 092035Z 30004KT 03/M02 A3033 RMK A01 T00261016  RH  075%=      5-min Rain = 0.01
KFLS 092040Z 30004KT 03/M01 A3033 RMK A01 T00261013  RH  076%=      5-min Rain = 0.01
KFLS 092045Z 31005KT 02/M02 A3033 RMK A01 T00231015  RH  076%=      5-min Rain = 0
KFLS 092050Z 31004KT 02/M01 A3033 RMK A01 T00231014  RH  077%=      5-min Rain = 0.01
KFLS 092055Z 31004KT 02/M01 A3032 RMK A01 T00231014  RH  077%=      5-min Rain = 0
KFLS 092100Z 31003KT 02/M01 A3032 RMK A01 T00241013  RH  078%=      5-min Rain = 0.01
KFLS 092105Z 31003KT 02/M01 A3032 RMK A01 T00241013  RH  077%=      5-min Rain = 0
KFLS 092110Z 31003KT 02/M02 A3032 RMK A01 T00231015  RH  077%=      5-min Rain = 0.01
KFLS 092115Z 31003KT 02/M02 A3032 RMK A01 T00241016  RH  076%=      5-min Rain = 0
KFLS 092120Z 30003KT 02/M02 A3033 RMK A01 T00241016  RH  076%=      5-min Rain = 0.01
KFLS 092125Z 30003KT 03/M02 A3033 RMK A01 T00251015  RH  075%=      5-min Rain = 0
KFLS 092130Z 30003KT 03/M02 A3033 RMK A01 T00271016  RH  074%=      5-min Rain = 0.01
KFLS 092135Z 29003KT 03/M02 A3033 RMK A01 T00281016  RH  074%=      5-min Rain = 0
KFLS 092140Z 27002KT 03/M02 A3033 RMK A01 T00291015  RH  074%=      5-min Rain = 0.01
KFLS 092145Z 28002KT 03/M02 A3032 RMK A01 T00291016  RH  073%=      5-min Rain = 0
KFLS 092150Z 27002KT 03/M01 A3032 RMK A01 T00311014  RH  073%=      5-min Rain = 0
KFLS 092155Z 25002KT 03/M01 A3032 RMK A01 T00341012  RH  073%=      5-min Rain = 0.01
KFLS 092200Z 24002KT 03/M01 A3032 RMK A01 T00341012  RH  072%=      5-min Rain = 0
KFLS 092205Z 23002KT 04/M03 A3032 RMK A01 T00411027  RH  062%=      5-min Rain = 0.01
KFLS 092210Z 24002KT 05/M04 A3032 RMK A01 T00451040  RH  055%=      5-min Rain = 0
KFLS 092215Z 25002KT 05/M04 A3032 RMK A01 T00451041  RH  054%=      5-min Rain = 0
KFLS 092220Z 25003KT 04/M04 A3032 RMK A01 T00411038  RH  057%=      5-min Rain = 0.01
KFLS 092225Z 25002KT 04/M04 A3032 RMK A01 T00391037  RH  058%=      5-min Rain = 0
KFLS 092230Z 25002KT 04/M04 A3032 RMK A01 T00401039  RH  057%=      5-min Rain = 0
KFLS 092235Z 25002KT 04/M04 A3032 RMK A01 T00411039  RH  056%=      5-min Rain = 0
KFLS 092240Z 24002KT 04/M04 A3032 RMK A01 T00391035  RH  059%=      5-min Rain = 0.01
KFLS 092245Z 23003KT 04/M03 A3032 RMK A01 T00351034  RH  061%=      5-min Rain = 0
KFLS 092250Z 23003KT 03/M04 A3032 RMK A01 T00331036  RH  061%=      5-min Rain = 0
KFLS 092255Z 23003KT 03/M04 A3033 RMK A01 T00311036  RH  062%=      5-min Rain = 0
KFLS 092300Z 23004KT 03/M04 A3033 RMK A01 T00291036  RH  063%=      5-min Rain = 0
KFLS 092305Z 23004KT 03/M04 A3033 RMK A01 T00251036  RH  065%=      5-min Rain = 0.01
KFLS 092310Z 22004KT 02/M04 A3033 RMK A01 T00201036  RH  067%=      5-min Rain = 0
KFLS 092315Z 22005KT 02/M04 A3032 RMK A01 T00161038  RH  068%=      5-min Rain = 0
KFLS 092320Z 23005KT 01/M04 A3032 RMK A01 T00141039  RH  068%=      5-min Rain = 0
KFLS 092325Z 23005KT 01/M04 A3032 RMK A01 T00091041  RH  070%=      5-min Rain = 0
KFLS 092330Z 23005KT 00/M04 A3032 RMK A01 T00041042  RH  072%=      5-min Rain = 0
KFLS 092335Z 23006KT 00/04 A3032 RMK A01 T00-00-44  RH  073%=      5-min Rain = 0
KFLS 092340Z 22007KT M00/M05 A3032 RMK A01 T10021045  RH  074%=      5-min Rain = 0
KFLS 092345Z 22006KT 00/M04 A3032 RMK A01 T00021043  RH  072%=      5-min Rain = 0
KFLS 092350Z 22006KT 00/04 A3032 RMK A01 T00000-44  RH  073%=      5-min Rain = 0
KFLS 092355Z 23006KT M00/M04 A3032 RMK A01 T10041044  RH  075%=      5-min Rain = 0
KFLS 100000Z 23006KT M01/M04 A3032 RMK A01 T10071043  RH  078%=      5-min Rain = 0
KFLS 100005Z 24007KT M01/M04 A3032 RMK A01 T10101043  RH  079%=      5-min Rain = 0
KFLS 100010Z 24007KT M02/M05 A3033 RMK A01 T10171047  RH  081%=      5-min Rain = 0
KFLS 100015Z 25006KT M02/M05 A3033 RMK A01 T10231049  RH  083%=      5-min Rain = 0
KFLS 100020Z 26006KT M03/M05 A3033 RMK A01 T10281051  RH  085%=      5-min Rain = 0
KFLS 100025Z 26007KT M03/M05 A3033 RMK A01 T10311052  RH  087%=      5-min Rain = 0
KFLS 100030Z 25007KT M03/M05 A3033 RMK A01 T10311051  RH  087%=      5-min Rain = 0
KFLS 100035Z 25006KT M03/M05 A3034 RMK A01 T10331053  RH  088%=      5-min Rain = 0
KFLS 100040Z 26006KT M04/M05 A3034 RMK A01 T10351054  RH  088%=      5-min Rain = 0
KFLS 100045Z 26006KT M04/M06 A3034 RMK A01 T10371055  RH  089%=      5-min Rain = 0
KFLS 100050Z 26006KT M04/M06 A3034 RMK A01 T10381055  RH  089%=      5-min Rain = 0
KFLS 100055Z 26006KT M04/M06 A3034 RMK A01 T10391056  RH  089%=      5-min Rain = 0
KFLS 100100Z 27006KT M04/M06 A3034 RMK A01 T10391055  RH  090%=      5-min Rain = 0
KFLS 100105Z 27006KT M04/M05 A3034 RMK A01 T10391054  RH  090%=      5-min Rain = 0
KFLS 100110Z 27006KT M04/M06 A3034 RMK A01 T10401055  RH  090%=      5-min Rain = 0
KFLS 100115Z 28006KT M04/M06 A3034 RMK A01 T10401055  RH  090%=      5-min Rain = 0
KFLS 100120Z 28007KT M04/M06 A3034 RMK A01 T10411056  RH  090%=      5-min Rain = 0
KFLS 100125Z 28008KT M04/M06 A3035 RMK A01 T10411056  RH  090%=      5-min Rain = 0
KFLS 100130Z 28007KT M04/M06 A3035 RMK A01 T10421057  RH  090%=      5-min Rain = 0
KFLS 100135Z 28007KT M04/M06 A3035 RMK A01 T10421057  RH  090%=      5-min Rain = 0
KFLS 100140Z 28008KT M04/M06 A3035 RMK A01 T10411056  RH  090%=      5-min Rain = 0
KFLS 100145Z 28008KT M04/M06 A3035 RMK A01 T10421057  RH  090%=      5-min Rain = 0
KFLS 100150Z 28007KT M04/M06 A3035 RMK A01 T10441059  RH  090%=      5-min Rain = 0
KFLS 100155Z 28007KT M04/M06 A3035 RMK A01 T10441059  RH  091%=      5-min Rain = 0
KFLS 100200Z 28006KT M04/M06 A3035 RMK A01 T10431057  RH  091%=      5-min Rain = 0
KFLS 100205Z 27006KT M04/M06 A3035 RMK A01 T10441058  RH  091%=      5-min Rain = 0
KFLS 100210Z 28006KT M04/M06 A3035 RMK A01 T10441057  RH  091%=      5-min Rain = 0
KFLS 100215Z 28006KT M04/M06 A3035 RMK A01 T10441057  RH  092%=      5-min Rain = 0
KFLS 100220Z 27006KT M05/M06 A3035 RMK A01 T10471060  RH  092%=      5-min Rain = 0
KFLS 100225Z 27006KT M05/M06 A3036 RMK A01 T10501063  RH  092%=      5-min Rain = 0
KFLS 100230Z 27007KT M05/M06 A3035 RMK A01 T10521064  RH  092%=      5-min Rain = 0
KFLS 100235Z 27007KT M05/M07 A3035 RMK A01 T10531065  RH  092%=      5-min Rain = 0
KFLS 100240Z 27008KT M05/M06 A3035 RMK A01 T10531064  RH  092%=      5-min Rain = 0
KFLS 100245Z 28008KT M05/M07 A3036 RMK A01 T10541066  RH  092%=      5-min Rain = 0
KFLS 100250Z 29008KT M06/M07 A3036 RMK A01 T10571070  RH  092%=      5-min Rain = 0
KFLS 100255Z 28007KT M06/M07 A3036 RMK A01 T10561068  RH  092%=      5-min Rain = 0
KFLS 100300Z 28007KT M06/M07 A3036 RMK A01 T10551067  RH  092%=      5-min Rain = 0
KFLS 100305Z 28008KT M05/M06 A3036 RMK A01 T10511064  RH  092%=      5-min Rain = 0
KFLS 100310Z 28007KT M05/M06 A3036 RMK A01 T10511064  RH  091%=      5-min Rain = 0
KFLS 100315Z 28007KT M05/M07 A3036 RMK A01 T10531068  RH  090%=      5-min Rain = 0
KFLS 100320Z 28007KT M06/M07 A3036 RMK A01 T10551070  RH  090%=      5-min Rain = 0
KFLS 100325Z 28007KT M05/M07 A3036 RMK A01 T10531068  RH  091%=      5-min Rain = 0
KFLS 100330Z 29007KT M05/M07 A3036 RMK A01 T10531068  RH  090%=      5-min Rain = 0
KFLS 100335Z 29007KT M05/M07 A3036 RMK A01 T10541070  RH  090%=      5-min Rain = 0
KFLS 100340Z 29008KT M05/M07 A3036 RMK A01 T10531068  RH  090%=      5-min Rain = 0
KFLS 100345Z 28008KT M05/M07 A3036 RMK A01 T10521069  RH  089%=      5-min Rain = 0
KFLS 100350Z 28008KT M05/M07 A3036 RMK A01 T10521069  RH  089%=      5-min Rain = 0
KFLS 100355Z 27007KT M05/M07 A3036 RMK A01 T10521070  RH  089%=      5-min Rain = 0
KFLS 100400Z 27006KT M05/M07 A3036 RMK A01 T10531070  RH  089%=      5-min Rain = 0
KFLS 100405Z 27006KT M06/M07 A3036 RMK A01 T10561073  RH  089%=      5-min Rain = 0
KFLS 100410Z 28007KT M06/M08 A3035 RMK A01 T10591075  RH  089%=      5-min Rain = 0
KFLS 100415Z 27007KT M06/M07 A3035 RMK A01 T10591074  RH  090%=      5-min Rain = 0
KFLS 100420Z 28007KT M06/M07 A3035 RMK A01 T10571073  RH  090%=      5-min Rain = 0
KFLS 100425Z 29008KT M06/M07 A3036 RMK A01 T10571073  RH  090%=      5-min Rain = 0
KFLS 100430Z 28008KT M06/M07 A3036 RMK A01 T10561072  RH  090%=      5-min Rain = 0
KFLS 100435Z 29008KT M06/M07 A3036 RMK A01 T10571073  RH  089%=      5-min Rain = 0
KFLS 100440Z 29009KT M06/M08 A3036 RMK A01 T10581075  RH  089%=      5-min Rain = 0
KFLS 100445Z 28009KT M06/M08 A3036 RMK A01 T10591076  RH  089%=      5-min Rain = 0
KFLS 100450Z 28009KT M06/M08 A3037 RMK A01 T10591076  RH  089%=      5-min Rain = 0
KFLS 100455Z 28008KT M06/M08 A3037 RMK A01 T10581075  RH  089%=      5-min Rain = 0
KFLS 100500Z 27008KT M06/M07 A3037 RMK A01 T10561072  RH  090%=      5-min Rain = 0
KFLS 100505Z 28008KT M05/M07 A3037 RMK A01 T10541071  RH  089%=      5-min Rain = 0
KFLS 100510Z 28008KT M05/M07 A3037 RMK A01 T10531070  RH  089%=      5-min Rain = 0
KFLS 100515Z 29007KT M06/M07 A3037 RMK A01 T10551072  RH  089%=      5-min Rain = 0
KFLS 100520Z 29007KT M06/M07 A3036 RMK A01 T10561073  RH  089%=      5-min Rain = 0
KFLS 100525Z 29007KT M06/M08 A3036 RMK A01 T10581075  RH  089%=      5-min Rain = 0
KFLS 100530Z 29008KT M06/M07 A3036 RMK A01 T10571074  RH  089%=      5-min Rain = 0
KFLS 100535Z 29008KT M06/M07 A3037 RMK A01 T10571073  RH  089%=      5-min Rain = 0
KFLS 100540Z 28008KT M06/M07 A3036 RMK A01 T10571073  RH  089%=      5-min Rain = 0
KFLS 100545Z 28008KT M06/M07 A3036 RMK A01 T10561073  RH  089%=      5-min Rain = 0
KFLS 100550Z 28008KT M06/M07 A3036 RMK A01 T10581074  RH  089%=      5-min Rain = 0
KFLS 100555Z 28008KT M06/M07 A3036 RMK A01 T10581074  RH  089%=      5-min Rain = 0

Page generated in 0.0091 seconds.